createdAt,value
2022-10-10T00:02:31.618Z,99475.50
2022-10-10T00:07:53.234Z,99478.66
2022-10-10T00:13:14.931Z,99474.50
2022-10-10T00:18:36.886Z,99465.44
2022-10-10T00:23:58.724Z,99480.81
2022-10-10T00:29:20.043Z,99477.81
2022-10-10T00:34:41.597Z,99478.34
2022-10-10T00:40:04.223Z,99476.22
2022-10-10T00:45:39.211Z,99474.81
2022-10-10T00:51:05.734Z,99481.22
2022-10-10T00:56:35.807Z,99484.59
2022-10-10T01:01:57.229Z,99480.09
2022-10-10T01:07:25.297Z,99482.63
2022-10-10T01:12:53.149Z,99481.03
2022-10-10T01:18:42.087Z,99475.69
2022-10-10T01:24:09.641Z,99478.19
2022-10-10T01:29:37.545Z,99479.59
2022-10-10T01:35:08.497Z,99481.69
2022-10-10T01:40:30.114Z,99486.25
2022-10-10T01:45:53.382Z,99484.41
2022-10-10T01:51:33.127Z,99487.94
2022-10-10T01:57:09.865Z,99476.97
2022-10-10T02:02:57.363Z,99480.63
2022-10-10T02:08:33.433Z,99488.63
2022-10-10T02:14:02.827Z,99491.34
2022-10-10T02:19:25.717Z,99498.78
2022-10-10T02:24:47.203Z,99489.38
2022-10-10T02:30:09.536Z,99491.94
2022-10-10T02:35:39.943Z,99486.91
2022-10-10T02:41:04.919Z,99483.44
2022-10-10T02:46:26.326Z,99487.81
2022-10-10T02:51:47.686Z,99494.13
2022-10-10T02:57:09.356Z,99494.00
2022-10-10T03:02:30.932Z,99484.50
2022-10-10T03:07:52.657Z,99488.75
2022-10-10T03:13:13.897Z,99482.50
2022-10-10T03:18:35.452Z,99487.16
2022-10-10T03:23:57.705Z,99489.00
2022-10-10T03:29:19.166Z,99482.34
2022-10-10T03:34:40.688Z,99480.38
2022-10-10T03:40:02.367Z,99487.25
2022-10-10T03:45:24.968Z,99484.75
2022-10-10T03:50:46.552Z,99475.63
2022-10-10T03:56:08.132Z,99476.50
2022-10-10T04:01:30.553Z,99478.38
2022-10-10T04:06:52.061Z,99479.16
2022-10-10T04:12:13.622Z,99473.28
2022-10-10T04:17:35.391Z,99476.38
2022-10-10T04:22:56.985Z,99477.66
2022-10-10T04:28:19.325Z,99483.22
2022-10-10T04:33:41.118Z,99478.75
2022-10-10T04:39:02.937Z,99489.09
2022-10-10T04:44:24.690Z,99486.47
2022-10-10T04:49:46.058Z,99491.22
2022-10-10T04:55:07.945Z,99482.34
2022-10-10T05:00:29.466Z,99486.25
2022-10-10T05:05:51.045Z,99486.81
2022-10-10T05:11:12.366Z,99481.88
2022-10-10T05:16:33.929Z,99487.16
2022-10-10T05:21:55.474Z,99495.97
2022-10-10T05:27:17.266Z,99486.69
2022-10-10T05:32:38.937Z,99479.06
2022-10-10T05:38:00.582Z,99481.78
2022-10-10T05:43:22.032Z,99476.06
2022-10-10T05:48:43.838Z,99474.41
2022-10-10T05:54:05.627Z,99469.16
2022-10-10T05:59:29.158Z,99469.16
2022-10-10T06:04:50.378Z,99469.91
2022-10-10T06:10:12.010Z,99475.34
2022-10-10T06:15:33.594Z,99470.91
2022-10-10T06:20:55.279Z,99470.84
2022-10-10T06:26:17.532Z,99468.09
2022-10-10T06:31:41.320Z,99472.47
2022-10-10T06:37:02.514Z,99459.09
2022-10-10T06:42:24.173Z,99455.22
2022-10-10T06:47:51.835Z,99459.97
2022-10-10T06:53:13.458Z,99451.91
2022-10-10T06:58:35.662Z,99444.41
2022-10-10T07:03:57.006Z,99438.22
2022-10-10T07:09:19.615Z,99439.13
2022-10-10T07:14:40.904Z,99431.88
2022-10-10T07:20:02.466Z,99426.13
2022-10-10T07:25:24.594Z,99423.69
2022-10-10T07:30:46.784Z,99429.13
2022-10-10T07:36:08.722Z,99429.84
2022-10-10T07:41:30.049Z,99423.50
2022-10-10T07:46:51.569Z,99416.94
2022-10-10T07:52:14.557Z,99418.03
2022-10-10T07:57:37.147Z,99422.50
2022-10-10T08:02:58.729Z,99422.16
2022-10-10T08:08:20.359Z,99419.72
2022-10-10T08:13:42.657Z,99412.03
2022-10-10T08:19:04.784Z,99417.47
2022-10-10T08:24:26.448Z,99421.00
2022-10-10T08:29:48.111Z,99422.72
2022-10-10T08:35:09.573Z,99425.25
2022-10-10T08:40:32.340Z,99424.22
2022-10-10T08:45:57.634Z,99429.53
2022-10-10T08:51:29.025Z,99433.66
2022-10-10T08:56:50.899Z,99425.66
2022-10-10T09:03:03.742Z,99429.69
2022-10-10T09:08:39.564Z,99420.59
2022-10-10T09:14:34.940Z,99418.50
2022-10-10T09:20:20.871Z,99422.75
2022-10-10T09:26:11.948Z,99429.47
2022-10-10T09:31:43.003Z,99432.72
2022-10-10T09:37:13.731Z,99425.66
2022-10-10T09:42:39.905Z,99420.34
2022-10-10T09:48:01.374Z,99424.59
2022-10-10T09:53:22.577Z,99428.13
2022-10-10T09:58:46.739Z,99419.06
2022-10-10T10:04:31.155Z,99419.09
2022-10-10T10:09:56.355Z,99411.53
2022-10-10T10:15:24.418Z,99410.69
2022-10-10T10:20:52.259Z,99411.19
2022-10-10T10:26:46.960Z,99411.41
2022-10-10T10:32:17.300Z,99409.91
2022-10-10T10:38:14.194Z,99414.56
2022-10-10T10:43:50.759Z,99426.09
2022-10-10T10:49:24.679Z,99415.31
2022-10-10T10:54:50.054Z,99412.09
2022-10-10T11:00:47.247Z,99408.69
2022-10-10T11:06:19.765Z,99416.63
2022-10-10T11:11:52.441Z,99407.13
2022-10-10T11:17:22.218Z,99417.66
2022-10-10T11:22:52.683Z,99416.91
2022-10-10T11:28:22.411Z,99417.00
2022-10-10T11:33:49.004Z,99415.72
2022-10-10T11:39:23.423Z,99413.69
2022-10-10T11:45:02.542Z,99407.94
2022-10-10T11:50:31.073Z,99411.75
2022-10-10T11:56:13.611Z,99416.31
2022-10-10T12:01:46.905Z,99419.91
2022-10-10T12:07:18.582Z,99415.00
2022-10-10T12:12:48.043Z,99426.72
2022-10-10T12:18:39.572Z,99426.13
2022-10-10T12:24:11.662Z,99428.66
2022-10-10T12:30:08.189Z,99426.84
2022-10-10T12:35:41.783Z,99438.63
2022-10-10T12:41:16.507Z,99441.41
2022-10-10T12:46:38.239Z,99437.16
2022-10-10T12:52:20.379Z,99432.03
2022-10-10T12:57:44.591Z,99435.63
2022-10-10T13:03:17.283Z,99443.03
2022-10-10T13:08:42.056Z,99447.34
2022-10-10T13:14:08.785Z,99446.59
2022-10-10T13:19:30.406Z,99437.84
2022-10-10T13:24:52.821Z,99436.25
2022-10-10T13:30:23.233Z,99438.75
2022-10-10T13:35:47.274Z,99434.28
2022-10-10T13:41:08.873Z,99434.09
2022-10-10T13:46:33.133Z,99438.13
2022-10-10T13:52:22.268Z,99432.03
2022-10-10T13:57:43.949Z,99440.56
2022-10-10T14:03:20.343Z,99430.09
2022-10-10T14:08:41.942Z,99440.75
2022-10-10T14:14:09.216Z,99434.00
2022-10-10T14:19:31.723Z,99433.13
2022-10-10T14:24:53.207Z,99434.97
2022-10-10T14:30:15.345Z,99441.03
2022-10-10T14:35:36.997Z,99438.19
2022-10-10T14:41:00.532Z,99443.16
2022-10-10T14:46:22.373Z,99438.13
2022-10-10T14:51:43.838Z,99443.50
2022-10-10T14:57:07.062Z,99431.59
2022-10-10T15:02:30.979Z,99438.59
2022-10-10T15:07:53.902Z,99442.06
2022-10-10T15:13:16.329Z,99435.44
2022-10-10T15:18:53.743Z,99450.31
2022-10-10T15:24:17.167Z,99452.38
2022-10-10T15:29:39.838Z,99453.19
2022-10-10T15:35:01.186Z,99457.81
2022-10-10T15:40:24.592Z,99466.34
2022-10-10T15:45:55.944Z,99462.28
2022-10-10T15:51:17.930Z,99456.44
2022-10-10T15:56:39.697Z,99461.00
2022-10-10T16:02:01.879Z,99460.25
2022-10-10T16:07:29.197Z,99455.94
2022-10-10T16:12:53.872Z,99455.28
2022-10-10T16:18:15.216Z,99445.75
2022-10-10T16:23:37.901Z,99456.44
2022-10-10T16:29:01.297Z,99461.09
2022-10-10T16:34:22.840Z,99455.09
2022-10-10T16:39:44.503Z,99455.16
2022-10-10T16:45:06.424Z,99453.13
2022-10-10T16:50:27.531Z,99451.41
2022-10-10T16:55:49.171Z,99450.75
2022-10-10T17:01:14.723Z,99448.16
2022-10-10T17:06:39.743Z,99445.47
2022-10-10T17:12:01.090Z,99444.50
2022-10-10T17:17:22.851Z,99451.53
2022-10-10T17:22:44.144Z,99450.97
2022-10-10T17:28:05.849Z,99447.44
2022-10-10T17:33:27.321Z,99443.38
2022-10-10T17:38:49.261Z,99450.50
2022-10-10T17:44:10.976Z,99449.31
2022-10-10T17:49:32.795Z,99442.84
2022-10-10T17:54:54.547Z,99438.88
2022-10-10T18:00:16.310Z,99437.22
2022-10-10T18:05:37.807Z,99442.53
2022-10-10T18:10:59.512Z,99442.94
2022-10-10T18:16:22.736Z,99448.25
2022-10-10T18:21:46.733Z,99447.41
2022-10-10T18:27:08.290Z,99443.38
2022-10-10T18:32:29.905Z,99440.09
2022-10-10T18:37:51.844Z,99433.22
2022-10-10T18:43:13.213Z,99434.00
2022-10-10T18:48:35.895Z,99431.38
2022-10-10T18:54:02.132Z,99447.84
2022-10-10T18:59:23.739Z,99438.38
2022-10-10T19:04:47.771Z,99432.28
2022-10-10T19:10:09.235Z,99429.59
2022-10-10T19:15:30.727Z,99426.16
2022-10-10T19:20:59.660Z,99435.81
2022-10-10T19:26:21.529Z,99425.28
2022-10-10T19:31:42.672Z,99433.94
2022-10-10T19:37:04.660Z,99426.81
2022-10-10T19:42:26.307Z,99427.47
2022-10-10T19:47:47.912Z,99422.16
2022-10-10T19:53:10.448Z,99422.84
2022-10-10T19:58:32.061Z,99418.34
2022-10-10T20:03:53.981Z,99407.00
2022-10-10T20:09:15.705Z,99405.94
2022-10-10T20:14:37.394Z,99400.72
2022-10-10T20:19:58.783Z,99395.63
2022-10-10T20:25:20.195Z,99398.31
2022-10-10T20:30:44.172Z,99396.69
2022-10-10T20:36:06.012Z,99395.59
2022-10-10T20:41:30.415Z,99405.81
2022-10-10T20:46:52.056Z,99397.47
2022-10-10T20:52:13.684Z,99388.16
2022-10-10T20:57:35.126Z,99375.41
2022-10-10T21:02:56.705Z,99383.28
2022-10-10T21:08:17.935Z,99385.84
2022-10-10T21:13:43.199Z,99379.81
2022-10-10T21:19:06.513Z,99379.75
2022-10-10T21:24:28.168Z,99383.31
2022-10-10T21:29:49.535Z,99376.31
2022-10-10T21:35:11.144Z,99373.75
2022-10-10T21:40:32.403Z,99380.81
2022-10-10T21:45:54.024Z,99364.47
2022-10-10T21:51:16.275Z,99356.81
2022-10-10T21:56:38.222Z,99365.56
2022-10-10T22:01:59.450Z,99370.13
2022-10-10T22:07:21.179Z,99365.69
2022-10-10T22:12:43.649Z,99362.97
2022-10-10T22:18:04.945Z,99367.38
2022-10-10T22:23:26.554Z,99365.53
2022-10-10T22:28:47.918Z,99362.13
2022-10-10T22:34:09.708Z,99349.88
2022-10-10T22:39:31.366Z,99348.03
2022-10-10T22:44:52.682Z,99344.53
2022-10-10T22:50:14.277Z,99352.19
2022-10-10T22:55:35.924Z,99335.72
2022-10-10T23:01:02.206Z,99345.13
2022-10-10T23:06:23.858Z,99332.13
2022-10-10T23:11:45.382Z,99327.63
2022-10-10T23:17:07.007Z,99317.91
2022-10-10T23:22:28.302Z,99316.19
2022-10-10T23:27:50.228Z,99323.22
2022-10-10T23:33:12.647Z,99307.56
2022-10-10T23:38:34.494Z,99311.91
2022-10-10T23:43:56.562Z,99305.81
2022-10-10T23:49:17.843Z,99297.97
2022-10-10T23:54:39.552Z,99304.97
2022-10-10T23:59:55.833Z,99299.47
